Observation data for Tulia on 08/10/2020      Previous  Date       Current Mesonet Observations  Soil Data  Daily Summary Page  Observations in Plain Language
KTIS 100500Z 22009KT 27/12 A3006 RMK A01 T02650119  RH  042%=      5-min Rain = 0
KTIS 100505Z 22009G15KT 27/12 A3005 RMK A01 T02650119  RH  042%=      5-min Rain = 0
KTIS 100510Z 22010KT 27/12 A3005 RMK A01 T02660118  RH  041%=      5-min Rain = 0
KTIS 100515Z 23008KT 27/12 A3005 RMK A01 T02660118  RH  041%=      5-min Rain = 0
KTIS 100520Z 22007KT 27/12 A3005 RMK A01 T02650118  RH  041%=      5-min Rain = 0
KTIS 100525Z 23007KT 27/12 A3005 RMK A01 T02650119  RH  042%=      5-min Rain = 0
KTIS 100530Z 23006KT 26/12 A3005 RMK A01 T02640119  RH  042%=      5-min Rain = 0
KTIS 100535Z 23006KT 26/12 A3005 RMK A01 T02640119  RH  042%=      5-min Rain = 0
KTIS 100540Z 23005KT 26/12 A3005 RMK A01 T02630120  RH  042%=      5-min Rain = 0
KTIS 100545Z 22004KT 26/12 A3005 RMK A01 T02620120  RH  043%=      5-min Rain = 0
KTIS 100550Z 22002KT 26/12 A3005 RMK A01 T02620121  RH  043%=      5-min Rain = 0
KTIS 100555Z 33007G13KT 26/13 A3006 RMK A01 T02570126  RH  046%=      5-min Rain = 0
KTIS 100600Z 34011KT 25/13 A3006 RMK A01 T02480128  RH  049%=      5-min Rain = 0
KTIS 100605Z 31007KT 25/13 A3007 RMK A01 T02470126  RH  049%=      5-min Rain = 0
KTIS 100610Z 24005G13KT 25/12 A3006 RMK A01 T02530120  RH  045%=      5-min Rain = 0
KTIS 100615Z 23007G12KT 27/12 A3005 RMK A01 T02690115  RH  040%=      5-min Rain = 0
KTIS 100620Z 31008KT 26/12 A3006 RMK A01 T02630122  RH  043%=      5-min Rain = 0
KTIS 100625Z 33007KT 25/13 A3006 RMK A01 T02480125  RH  048%=      5-min Rain = 0
KTIS 100630Z 33008KT 25/12 A3006 RMK A01 T02470122  RH  047%=      5-min Rain = 0
KTIS 100635Z 33006KT 25/12 A3006 RMK A01 T02450121  RH  048%=      5-min Rain = 0
KTIS 100640Z 34005KT 24/12 A3006 RMK A01 T02430122  RH  049%=      5-min Rain = 0
KTIS 100645Z 32004KT 23/12 A3007 RMK A01 T02340122  RH  051%=      5-min Rain = 0
KTIS 100650Z 28002KT 23/12 A3006 RMK A01 T02310121  RH  052%=      5-min Rain = 0
KTIS 100655Z 21002KT 23/13 A3006 RMK A01 T02290127  RH  055%=      5-min Rain = 0
KTIS 100700Z 21002KT 23/13 A3006 RMK A01 T02250129  RH  057%=      5-min Rain = 0
KTIS 100705Z 24003KT 23/12 A3006 RMK A01 T02270124  RH  054%=      5-min Rain = 0
KTIS 100710Z 21004KT 23/12 A3006 RMK A01 T02280123  RH  053%=      5-min Rain = 0
KTIS 100715Z 19005KT 23/13 A3006 RMK A01 T02250128  RH  056%=      5-min Rain = 0
KTIS 100720Z 21005KT 23/12 A3006 RMK A01 T02290124  RH  054%=      5-min Rain = 0
KTIS 100725Z 22005KT 23/12 A3006 RMK A01 T02330123  RH  052%=      5-min Rain = 0
KTIS 100730Z 22005KT 23/12 A3006 RMK A01 T02340121  RH  051%=      5-min Rain = 0
KTIS 100735Z 22004KT 24/12 A3006 RMK A01 T02350123  RH  051%=      5-min Rain = 0
KTIS 100740Z 22004KT 23/13 A3006 RMK A01 T02320126  RH  053%=      5-min Rain = 0
KTIS 100745Z 21004KT 23/13 A3006 RMK A01 T02300125  RH  053%=      5-min Rain = 0
KTIS 100750Z 21004KT 23/13 A3007 RMK A01 T02290130  RH  056%=      5-min Rain = 0
KTIS 100755Z 19004KT 23/14 A3007 RMK A01 T02250135  RH  059%=      5-min Rain = 0
KTIS 100800Z 18003KT 22/14 A3007 RMK A01 T02220136  RH  061%=      5-min Rain = 0
KTIS 100805Z 19002KT 22/14 A3007 RMK A01 T02240135  RH  060%=      5-min Rain = 0
KTIS 100810Z 16002KT 22/14 A3007 RMK A01 T02210139  RH  062%=      5-min Rain = 0
KTIS 100815Z 16002KT 22/14 A3006 RMK A01 T02210139  RH  062%=      5-min Rain = 0
KTIS 100820Z 17003KT 22/14 A3006 RMK A01 T02200138  RH  062%=      5-min Rain = 0
KTIS 100825Z 17004KT 22/14 A3006 RMK A01 T02190136  RH  062%=      5-min Rain = 0
KTIS 100830Z 17005KT 22/13 A3006 RMK A01 T02200133  RH  060%=      5-min Rain = 0
KTIS 100835Z 17005KT 22/13 A3006 RMK A01 T02210134  RH  060%=      5-min Rain = 0
KTIS 100840Z 19006KT 22/13 A3006 RMK A01 T02220132  RH  059%=      5-min Rain = 0
KTIS 100845Z 19006KT 23/13 A3005 RMK A01 T02290126  RH  054%=      5-min Rain = 0
KTIS 100850Z 19006KT 23/13 A3005 RMK A01 T02320127  RH  054%=      5-min Rain = 0
KTIS 100855Z 20006KT 23/13 A3006 RMK A01 T02320128  RH  054%=      5-min Rain = 0
KTIS 100900Z 20007KT 23/13 A3005 RMK A01 T02290128  RH  055%=      5-min Rain = 0
KTIS 100905Z 21007KT 23/13 A3005 RMK A01 T02280129  RH  056%=      5-min Rain = 0
KTIS 100910Z 20008KT 23/13 A3005 RMK A01 T02340131  RH  054%=      5-min Rain = 0
KTIS 100915Z 20009KT 24/13 A3005 RMK A01 T02350132  RH  054%=      5-min Rain = 0
KTIS 100920Z 20010KT 24/13 A3005 RMK A01 T02370133  RH  054%=      5-min Rain = 0
KTIS 100925Z 20010KT 24/14 A3004 RMK A01 T02400135  RH  054%=      5-min Rain = 0
KTIS 100930Z 20011KT 24/14 A3004 RMK A01 T02430136  RH  054%=      5-min Rain = 0
KTIS 100935Z 20012G17KT 25/14 A3004 RMK A01 T02470137  RH  052%=      5-min Rain = 0
KTIS 100940Z 20012KT 25/14 A3004 RMK A01 T02470137  RH  052%=      5-min Rain = 0
KTIS 100945Z 20012KT 25/14 A3004 RMK A01 T02480137  RH  052%=      5-min Rain = 0
KTIS 100950Z 20012KT 25/14 A3004 RMK A01 T02470138  RH  053%=      5-min Rain = 0
KTIS 100955Z 21013KT 25/14 A3003 RMK A01 T02470138  RH  053%=      5-min Rain = 0
KTIS 101000Z 21013G18KT 25/14 A3003 RMK A01 T02490137  RH  052%=      5-min Rain = 0
KTIS 101005Z 21012KT 25/14 A3003 RMK A01 T02480137  RH  052%=      5-min Rain = 0
KTIS 101010Z 21012KT 25/14 A3004 RMK A01 T02470138  RH  053%=      5-min Rain = 0
KTIS 101015Z 21011G16KT 25/14 A3004 RMK A01 T02470138  RH  053%=      5-min Rain = 0
KTIS 101020Z 21012KT 25/14 A3004 RMK A01 T02460138  RH  053%=      5-min Rain = 0
KTIS 101025Z 21011G16KT 25/14 A3004 RMK A01 T02460138  RH  053%=      5-min Rain = 0
KTIS 101030Z 22012G17KT 25/14 A3004 RMK A01 T02480138  RH  053%=      5-min Rain = 0
KTIS 101035Z 22012KT 25/14 A3004 RMK A01 T02480139  RH  053%=      5-min Rain = 0
KTIS 101040Z 22013KT 25/14 A3004 RMK A01 T02470139  RH  053%=      5-min Rain = 0
KTIS 101045Z 22014G19KT 25/14 A3003 RMK A01 T02470139  RH  053%=      5-min Rain = 0
KTIS 101050Z 22015KT 25/14 A3003 RMK A01 T02480140  RH  053%=      5-min Rain = 0
KTIS 101055Z 22015KT 25/14 A3003 RMK A01 T02480140  RH  053%=      5-min Rain = 0
KTIS 101100Z 21015G20KT 25/14 A3003 RMK A01 T02470141  RH  054%=      5-min Rain = 0
KTIS 101105Z 21014G20KT 25/14 A3003 RMK A01 T02470142  RH  054%=      5-min Rain = 0
KTIS 101110Z 19013KT 25/14 A3004 RMK A01 T02450143  RH  055%=      5-min Rain = 0
KTIS 101115Z 19012KT 24/14 A3004 RMK A01 T02420142  RH  056%=      5-min Rain = 0
KTIS 101120Z 19012KT 24/14 A3004 RMK A01 T02390141  RH  057%=      5-min Rain = 0
KTIS 101125Z 19012KT 24/14 A3004 RMK A01 T02380141  RH  057%=      5-min Rain = 0
KTIS 101130Z 19011KT 24/14 A3004 RMK A01 T02360141  RH  057%=      5-min Rain = 0
KTIS 101135Z 20009KT 24/14 A3004 RMK A01 T02350142  RH  058%=      5-min Rain = 0
KTIS 101140Z 20009KT 23/14 A3005 RMK A01 T02340142  RH  059%=      5-min Rain = 0
KTIS 101145Z 20009KT 23/14 A3005 RMK A01 T02330142  RH  059%=      5-min Rain = 0
KTIS 101150Z 20008KT 23/14 A3005 RMK A01 T02310143  RH  060%=      5-min Rain = 0
KTIS 101155Z 20008KT 23/14 A3005 RMK A01 T02290143  RH  061%=      5-min Rain = 0
KTIS 101200Z 19008KT 23/14 A3005 RMK A01 T02260143  RH  062%=      5-min Rain = 0
KTIS 101205Z 19009KT 23/14 A3005 RMK A01 T02250142  RH  062%=      5-min Rain = 0
KTIS 101210Z 20009KT 22/14 A3005 RMK A01 T02240141  RH  062%=      5-min Rain = 0
KTIS 101215Z 19009KT 22/14 A3006 RMK A01 T02230140  RH  062%=      5-min Rain = 0
KTIS 101220Z 19009KT 22/14 A3006 RMK A01 T02230140  RH  062%=      5-min Rain = 0
KTIS 101225Z 19009KT 22/14 A3006 RMK A01 T02240140  RH  061%=      5-min Rain = 0
KTIS 101230Z 20009KT 22/14 A3006 RMK A01 T02230140  RH  062%=      5-min Rain = 0
KTIS 101235Z 20010KT 22/14 A3006 RMK A01 T02240141  RH  062%=      5-min Rain = 0
KTIS 101240Z 20010KT 23/14 A3006 RMK A01 T02260141  RH  061%=      5-min Rain = 0
KTIS 101245Z 19010KT 23/14 A3006 RMK A01 T02270142  RH  061%=      5-min Rain = 0
KTIS 101250Z 19010KT 23/14 A3007 RMK A01 T02280142  RH  061%=      5-min Rain = 0
KTIS 101255Z 19012KT 23/14 A3007 RMK A01 T02300143  RH  061%=      5-min Rain = 0
KTIS 101300Z 19012KT 23/14 A3007 RMK A01 T02310144  RH  060%=      5-min Rain = 0
KTIS 101305Z 19013KT 23/14 A3007 RMK A01 T02330144  RH  060%=      5-min Rain = 0
KTIS 101310Z 19013KT 23/15 A3007 RMK A01 T02340145  RH  060%=      5-min Rain = 0
KTIS 101315Z 19012KT 24/15 A3007 RMK A01 T02360146  RH  060%=      5-min Rain = 0
KTIS 101320Z 19014KT 24/15 A3007 RMK A01 T02380146  RH  059%=      5-min Rain = 0
KTIS 101325Z 19016KT 24/15 A3007 RMK A01 T02390146  RH  059%=      5-min Rain = 0
KTIS 101330Z 20016KT 24/15 A3007 RMK A01 T02410147  RH  058%=      5-min Rain = 0
KTIS 101335Z 19016KT 24/15 A3007 RMK A01 T02430148  RH  058%=      5-min Rain = 0
KTIS 101340Z 20016KT 25/15 A3007 RMK A01 T02460150  RH  058%=      5-min Rain = 0
KTIS 101345Z 20016G21KT 25/15 A3007 RMK A01 T02470150  RH  057%=      5-min Rain = 0
KTIS 101350Z 19017KT 25/15 A3007 RMK A01 T02490151  RH  057%=      5-min Rain = 0
KTIS 101355Z 20016KT 25/15 A3007 RMK A01 T02510152  RH  057%=      5-min Rain = 0
KTIS 101400Z 19016G21KT 25/15 A3007 RMK A01 T02530153  RH  056%=      5-min Rain = 0
KTIS 101405Z 20017G23KT 26/15 A3007 RMK A01 T02560153  RH  056%=      5-min Rain = 0
KTIS 101410Z 19020KT 26/15 A3008 RMK A01 T02570153  RH  055%=      5-min Rain = 0
KTIS 101415Z 19019KT 26/15 A3008 RMK A01 T02590153  RH  055%=      5-min Rain = 0
KTIS 101420Z 19019KT 26/15 A3008 RMK A01 T02610154  RH  054%=      5-min Rain = 0
KTIS 101425Z 19019G25KT 26/15 A3008 RMK A01 T02620154  RH  054%=      5-min Rain = 0
KTIS 101430Z 20019KT 26/15 A3008 RMK A01 T02630154  RH  054%=      5-min Rain = 0
KTIS 101435Z 19019KT 26/15 A3008 RMK A01 T02640154  RH  053%=      5-min Rain = 0
KTIS 101440Z 19018G23KT 27/16 A3008 RMK A01 T02670156  RH  053%=      5-min Rain = 0
KTIS 101445Z 19019KT 27/16 A3009 RMK A01 T02680156  RH  053%=      5-min Rain = 0
KTIS 101450Z 19018KT 27/16 A3009 RMK A01 T02690156  RH  052%=      5-min Rain = 0
KTIS 101455Z 20018G23KT 27/16 A3009 RMK A01 T02700156  RH  052%=      5-min Rain = 0
KTIS 101500Z 19017G22KT 27/16 A3009 RMK A01 T02730158  RH  052%=      5-min Rain = 0
KTIS 101505Z 19017KT 27/16 A3009 RMK A01 T02740158  RH  051%=      5-min Rain = 0
KTIS 101510Z 19018KT 27/16 A3009 RMK A01 T02730157  RH  051%=      5-min Rain = 0
KTIS 101515Z 19016G22KT 28/16 A3008 RMK A01 T02760159  RH  051%=      5-min Rain = 0
KTIS 101520Z 20017KT 28/16 A3008 RMK A01 T02790159  RH  050%=      5-min Rain = 0
KTIS 101525Z 20017KT 28/16 A3008 RMK A01 T02780158  RH  050%=      5-min Rain = 0
KTIS 101530Z 19015KT 28/16 A3009 RMK A01 T02810162  RH  050%=      5-min Rain = 0
KTIS 101535Z 19016G21KT 28/16 A3009 RMK A01 T02830160  RH  050%=      5-min Rain = 0
KTIS 101540Z 20015KT 29/16 A3009 RMK A01 T02860161  RH  049%=      5-min Rain = 0
KTIS 101545Z 20015KT 29/16 A3008 RMK A01 T02860161  RH  049%=      5-min Rain = 0
KTIS 101550Z 20015G20KT 29/16 A3008 RMK A01 T02890162  RH  049%=      5-min Rain = 0
KTIS 101555Z 19014G19KT 29/16 A3009 RMK A01 T02890162  RH  049%=      5-min Rain = 0
KTIS 101600Z 20014KT 29/16 A3009 RMK A01 T02910162  RH  048%=      5-min Rain = 0
KTIS 101605Z 19015KT 29/16 A3009 RMK A01 T02930162  RH  048%=      5-min Rain = 0
KTIS 101610Z 19013G18KT 29/16 A3009 RMK A01 T02930163  RH  048%=      5-min Rain = 0
KTIS 101615Z 20013G18KT 29/16 A3009 RMK A01 T02940163  RH  048%=      5-min Rain = 0
KTIS 101620Z 18013KT 30/17 A3009 RMK A01 T02960165  RH  047%=      5-min Rain = 0
KTIS 101625Z 19013KT 30/17 A3009 RMK A01 T02990165  RH  047%=      5-min Rain = 0
KTIS 101630Z 20012KT 30/17 A3009 RMK A01 T02990165  RH  047%=      5-min Rain = 0
KTIS 101635Z 19012G17KT 30/17 A3008 RMK A01 T03030166  RH  046%=      5-min Rain = 0
KTIS 101640Z 18014G19KT 30/17 A3008 RMK A01 T03040165  RH  045%=      5-min Rain = 0
KTIS 101645Z 18012G17KT 31/17 A3008 RMK A01 T03060169  RH  046%=      5-min Rain = 0
KTIS 101650Z 20012G17KT 31/17 A3008 RMK A01 T03080166  RH  045%=      5-min Rain = 0
KTIS 101655Z 19013KT 31/17 A3008 RMK A01 T03080165  RH  044%=      5-min Rain = 0
KTIS 101700Z 19011KT 31/17 A3008 RMK A01 T03110166  RH  044%=      5-min Rain = 0
KTIS 101705Z 19012G18KT 32/17 A3007 RMK A01 T03150167  RH  043%=      5-min Rain = 0
KTIS 101710Z 19014KT 32/16 A3007 RMK A01 T03150159  RH  041%=      5-min Rain = 0
KTIS 101715Z 19013G18KT 32/16 A3007 RMK A01 T03150160  RH  041%=      5-min Rain = 0
KTIS 101720Z 20013KT 32/16 A3007 RMK A01 T03150157  RH  040%=      5-min Rain = 0
KTIS 101725Z 19013G18KT 32/16 A3007 RMK A01 T03200155  RH  039%=      5-min Rain = 0
KTIS 101730Z 19013KT 32/15 A3007 RMK A01 T03220154  RH  038%=      5-min Rain = 0
KTIS 101735Z 20012KT 32/16 A3007 RMK A01 T03210157  RH  039%=      5-min Rain = 0
KTIS 101740Z 19013KT 33/16 A3007 RMK A01 T03250157  RH  038%=      5-min Rain = 0
KTIS 101745Z 19013KT 33/15 A3007 RMK A01 T03270152  RH  036%=      5-min Rain = 0
KTIS 101750Z 19013G18KT 33/15 A3006 RMK A01 T03280152  RH  036%=      5-min Rain = 0
KTIS 101755Z 17013KT 33/15 A3006 RMK A01 T03290154  RH  037%=      5-min Rain = 0
KTIS 101800Z 18014G20KT 33/15 A3006 RMK A01 T03330152  RH  035%=      5-min Rain = 0
KTIS 101805Z 18015KT 33/15 A3006 RMK A01 T03320146  RH  034%=      5-min Rain = 0
KTIS 101810Z 19013G18KT 33/15 A3006 RMK A01 T03330150  RH  035%=      5-min Rain = 0
KTIS 101815Z 18014G20KT 34/15 A3006 RMK A01 T03350150  RH  035%=      5-min Rain = 0
KTIS 101820Z 18014G20KT 34/15 A3005 RMK A01 T03360153  RH  035%=      5-min Rain = 0
KTIS 101825Z 19013G20KT 34/15 A3005 RMK A01 T03380151  RH  034%=      5-min Rain = 0
KTIS 101830Z 18014G20KT 34/15 A3005 RMK A01 T03360150  RH  034%=      5-min Rain = 0
KTIS 101835Z 16013G20KT 34/16 A3004 RMK A01 T03350155  RH  036%=      5-min Rain = 0
KTIS 101840Z 18013G18KT 34/15 A3004 RMK A01 T03360154  RH  035%=      5-min Rain = 0
KTIS 101845Z 18015G21KT 34/15 A3004 RMK A01 T03390150  RH  034%=      5-min Rain = 0
KTIS 101850Z 18015KT 34/15 A3004 RMK A01 T03400150  RH  033%=      5-min Rain = 0
KTIS 101855Z 18015G21KT 34/15 A3004 RMK A01 T03400147  RH  033%=      5-min Rain = 0
KTIS 101900Z 17014G19KT 34/15 A3004 RMK A01 T03420147  RH  032%=      5-min Rain = 0
KTIS 101905Z 18015G23KT 34/15 A3003 RMK A01 T03440145  RH  032%=      5-min Rain = 0
KTIS 101910Z 18013KT 34/15 A3003 RMK A01 T03430147  RH  032%=      5-min Rain = 0
KTIS 101915Z 19015G21KT 35/14 A3003 RMK A01 T03450140  RH  031%=      5-min Rain = 0
KTIS 101920Z 19012G18KT 35/15 A3003 RMK A01 T03490147  RH  031%=      5-min Rain = 0
KTIS 101925Z 19016G21KT 35/14 A3003 RMK A01 T03500140  RH  030%=      5-min Rain = 0
KTIS 101930Z 20013G18KT 35/14 A3003 RMK A01 T03490138  RH  029%=      5-min Rain = 0
KTIS 101935Z 18015KT 35/14 A3002 RMK A01 T03490141  RH  030%=      5-min Rain = 0
KTIS 101940Z 17013KT 35/15 A3002 RMK A01 T03480147  RH  031%=      5-min Rain = 0
KTIS 101945Z 20015G21KT 35/14 A3002 RMK A01 T03500140  RH  030%=      5-min Rain = 0
KTIS 101950Z 20013KT 35/14 A3002 RMK A01 T03510138  RH  029%=      5-min Rain = 0
KTIS 101955Z 20015G20KT 35/14 A3002 RMK A01 T03510142  RH  030%=      5-min Rain = 0
KTIS 102000Z 18015G20KT 35/15 A3002 RMK A01 T03540147  RH  030%=      5-min Rain = 0
KTIS 102005Z 18015G20KT 36/14 A3002 RMK A01 T03560143  RH  029%=      5-min Rain = 0
KTIS 102010Z 18014G20KT 35/14 A3001 RMK A01 T03540144  RH  030%=      5-min Rain = 0
KTIS 102015Z 18014G19KT 36/15 A3001 RMK A01 T03570145  RH  029%=      5-min Rain = 0
KTIS 102020Z 17013G18KT 35/15 A3001 RMK A01 T03530149  RH  031%=      5-min Rain = 0
KTIS 102025Z 19017G27KT 36/14 A30 RMK A01 T03550141  RH  029%=      5-min Rain = 0
KTIS 102030Z 20011KT 36/14 A30 RMK A01 T03550141  RH  029%=      5-min Rain = 0
KTIS 102035Z 18014G19KT 36/15 A30 RMK A01 T03550145  RH  030%=      5-min Rain = 0
KTIS 102040Z 19014KT 36/14 A30 RMK A01 T03550136  RH  028%=      5-min Rain = 0
KTIS 102045Z 20011G17KT 36/14 A30 RMK A01 T03560137  RH  028%=      5-min Rain = 0
KTIS 102050Z 21012G17KT 36/14 A30 RMK A01 T03570137  RH  028%=      5-min Rain = 0
KTIS 102055Z 21011G17KT 36/14 A30 RMK A01 T03570135  RH  028%=      5-min Rain = 0
KTIS 102100Z 20014G20KT 36/14 A30 RMK A01 T03590136  RH  027%=      5-min Rain = 0
KTIS 102105Z 19011G18KT 36/14 A30 RMK A01 T03600139  RH  028%=      5-min Rain = 0
KTIS 102110Z 19010G15KT 36/14 A30 RMK A01 T03600141  RH  028%=      5-min Rain = 0
KTIS 102115Z 20012KT 36/14 A30 RMK A01 T03580137  RH  028%=      5-min Rain = 0
KTIS 102120Z 18011G17KT 36/14 A30 RMK A01 T03580139  RH  028%=      5-min Rain = 0
KTIS 102125Z 18013G19KT 36/14 A2999 RMK A01 T03600139  RH  028%=      5-min Rain = 0
KTIS 102130Z 16010KT 36/14 A2999 RMK A01 T03570143  RH  029%=      5-min Rain = 0
KTIS 102135Z 18011G18KT 36/14 A2999 RMK A01 T03560139  RH  028%=      5-min Rain = 0
KTIS 102140Z 17013G19KT 36/14 A2998 RMK A01 T03590144  RH  029%=      5-min Rain = 0
KTIS 102145Z 17012G17KT 36/14 A2998 RMK A01 T03570139  RH  028%=      5-min Rain = 0
KTIS 102150Z 18013G20KT 36/14 A2998 RMK A01 T03600139  RH  028%=      5-min Rain = 0
KTIS 102155Z 17013KT 36/14 A2998 RMK A01 T03580140  RH  028%=      5-min Rain = 0
KTIS 102200Z 18013KT 36/14 A2998 RMK A01 T03600139  RH  028%=      5-min Rain = 0
KTIS 102205Z 18011KT 36/15 A2997 RMK A01 T03610145  RH  029%=      5-min Rain = 0
KTIS 102210Z 19013KT 36/14 A2997 RMK A01 T03620142  RH  028%=      5-min Rain = 0
KTIS 102215Z 20013G18KT 36/14 A2997 RMK A01 T03620140  RH  028%=      5-min Rain = 0
KTIS 102220Z 18010G17KT 36/14 A2997 RMK A01 T03580139  RH  028%=      5-min Rain = 0
KTIS 102225Z 18013G21KT 36/14 A2997 RMK A01 T03590141  RH  028%=      5-min Rain = 0
KTIS 102230Z 19013KT 36/14 A2997 RMK A01 T03600142  RH  028%=      5-min Rain = 0
KTIS 102235Z 19011G16KT 36/14 A2997 RMK A01 T03610138  RH  028%=      5-min Rain = 0
KTIS 102240Z 18012G19KT 36/14 A2997 RMK A01 T03600140  RH  028%=      5-min Rain = 0
KTIS 102245Z 18014G20KT 36/15 A2997 RMK A01 T03580145  RH  029%=      5-min Rain = 0
KTIS 102250Z 20013G18KT 36/14 A2996 RMK A01 T03560143  RH  029%=      5-min Rain = 0
KTIS 102255Z 19012G18KT 35/14 A2996 RMK A01 T03520139  RH  029%=      5-min Rain = 0
KTIS 102300Z 18010G18KT 35/14 A2996 RMK A01 T03500142  RH  030%=      5-min Rain = 0
KTIS 102305Z 19015KT 35/14 A2996 RMK A01 T03540140  RH  029%=      5-min Rain = 0
KTIS 102310Z 18014G20KT 35/14 A2996 RMK A01 T03530141  RH  029%=      5-min Rain = 0
KTIS 102315Z 18013KT 35/14 A2996 RMK A01 T03510140  RH  029%=      5-min Rain = 0
KTIS 102320Z 17014G20KT 35/14 A2996 RMK A01 T03540143  RH  030%=      5-min Rain = 0
KTIS 102325Z 17015KT 35/14 A2996 RMK A01 T03540143  RH  030%=      5-min Rain = 0
KTIS 102330Z 18016KT 36/14 A2995 RMK A01 T03560142  RH  029%=      5-min Rain = 0
KTIS 102335Z 17013G18KT 35/15 A2995 RMK A01 T03540147  RH  030%=      5-min Rain = 0
KTIS 102340Z 17014KT 35/15 A2995 RMK A01 T03520148  RH  031%=      5-min Rain = 0
KTIS 102345Z 18014G19KT 35/15 A2995 RMK A01 T03530146  RH  030%=      5-min Rain = 0
KTIS 102350Z 16013G18KT 35/15 A2995 RMK A01 T03490148  RH  031%=      5-min Rain = 0
KTIS 102355Z 17013KT 35/15 A2994 RMK A01 T03490147  RH  031%=      5-min Rain = 0
KTIS 110000Z 18015KT 35/14 A2994 RMK A01 T03520142  RH  030%=      5-min Rain = 0
KTIS 110005Z 17013KT 35/15 A2994 RMK A01 T03500145  RH  031%=      5-min Rain = 0
KTIS 110010Z 17015KT 35/14 A2994 RMK A01 T03470144  RH  031%=      5-min Rain = 0
KTIS 110015Z 18015KT 35/15 A2994 RMK A01 T03500145  RH  031%=      5-min Rain = 0
KTIS 110020Z 18016KT 35/14 A2993 RMK A01 T03490142  RH  030%=      5-min Rain = 0
KTIS 110025Z 18016KT 35/14 A2993 RMK A01 T03470143  RH  031%=      5-min Rain = 0
KTIS 110030Z 17015G20KT 35/14 A2992 RMK A01 T03460144  RH  031%=      5-min Rain = 0
KTIS 110035Z 17015G22KT 34/15 A2992 RMK A01 T03430145  RH  032%=      5-min Rain = 0
KTIS 110040Z 17016G21KT 34/14 A2992 RMK A01 T03420144  RH  032%=      5-min Rain = 0
KTIS 110045Z 16015KT 34/15 A2992 RMK A01 T03390145  RH  032%=      5-min Rain = 0
KTIS 110050Z 17016KT 34/14 A2991 RMK A01 T03380142  RH  032%=      5-min Rain = 0
KTIS 110055Z 17016KT 34/14 A2991 RMK A01 T03400139  RH  031%=      5-min Rain = 0
KTIS 110100Z 17015KT 34/14 A2991 RMK A01 T03390140  RH  031%=      5-min Rain = 0
KTIS 110105Z 17014G19KT 34/14 A2991 RMK A01 T03390139  RH  031%=      5-min Rain = 0
KTIS 110110Z 17016KT 34/14 A2992 RMK A01 T03370137  RH  031%=      5-min Rain = 0
KTIS 110115Z 17014KT 34/14 A2992 RMK A01 T03360137  RH  031%=      5-min Rain = 0
KTIS 110120Z 17012KT 34/14 A2993 RMK A01 T03350136  RH  031%=      5-min Rain = 0
KTIS 110125Z 17010KT 33/14 A2993 RMK A01 T03320138  RH  032%=      5-min Rain = 0
KTIS 110130Z 16011KT 33/14 A2994 RMK A01 T03280139  RH  033%=      5-min Rain = 0
KTIS 110135Z 16011KT 32/14 A2994 RMK A01 T03240139  RH  034%=      5-min Rain = 0
KTIS 110140Z 16011KT 32/14 A2995 RMK A01 T03230137  RH  034%=      5-min Rain = 0
KTIS 110145Z 16010KT 32/14 A2995 RMK A01 T03210138  RH  034%=      5-min Rain = 0
KTIS 110150Z 15008KT 32/14 A2995 RMK A01 T03150141  RH  036%=      5-min Rain = 0
KTIS 110155Z 14009KT 31/14 A2995 RMK A01 T03120138  RH  036%=      5-min Rain = 0
KTIS 110200Z 14009KT 31/14 A2995 RMK A01 T03100137  RH  036%=      5-min Rain = 0
KTIS 110205Z 13008KT 31/14 A2995 RMK A01 T03090136  RH  036%=      5-min Rain = 0
KTIS 110210Z 13008KT 31/13 A2995 RMK A01 T03110134  RH  035%=      5-min Rain = 0
KTIS 110215Z 13008KT 31/13 A2995 RMK A01 T03100134  RH  035%=      5-min Rain = 0
KTIS 110220Z 11007KT 31/14 A2996 RMK A01 T03090135  RH  036%=      5-min Rain = 0
KTIS 110225Z 09008KT 31/14 A2997 RMK A01 T03050137  RH  037%=      5-min Rain = 0
KTIS 110230Z 09008KT 30/14 A2997 RMK A01 T03040138  RH  038%=      5-min Rain = 0
KTIS 110235Z 09008KT 30/14 A2998 RMK A01 T03030139  RH  038%=      5-min Rain = 0
KTIS 110240Z 07008KT 30/14 A2998 RMK A01 T03030138  RH  038%=      5-min Rain = 0
KTIS 110245Z 04009KT 30/14 A2999 RMK A01 T03000139  RH  039%=      5-min Rain = 0
KTIS 110250Z 04013KT 30/14 A30 RMK A01 T03010138  RH  039%=      5-min Rain = 0
KTIS 110255Z 03017G24KT 30/14 A3001 RMK A01 T03040137  RH  038%=      5-min Rain = 0
KTIS 110300Z 03014G23KT 29/15 A3001 RMK A01 T02850145  RH  044%=      5-min Rain = 0
KTIS 110305Z 03015G22KT 30/13 A30 RMK A01 T02960134  RH  039%=      5-min Rain = 0
KTIS 110310Z 05014KT 30/14 A30 RMK A01 T03030135  RH  037%=      5-min Rain = 0
KTIS 110315Z 06012G17KT 31/14 A30 RMK A01 T03060135  RH  037%=      5-min Rain = 0
KTIS 110320Z 05014G22KT 31/12 A3001 RMK A01 T03080119  RH  033%=      5-min Rain = 0
KTIS 110325Z 02011KT 30/12 A3002 RMK A01 T03030117  RH  033%=      5-min Rain = 0
KTIS 110330Z 02010KT 30/12 A3005 RMK A01 T03000121  RH  035%=      5-min Rain = 0
KTIS 110335Z 03010G16KT 28/15 A3006 RMK A01 T02820147  RH  046%=      5-min Rain = 0.02
KTIS 110340Z 05006G12KT 25/16 A3005 RMK A01 T02500161  RH  060%=      5-min Rain = 0.08
KTIS 110345Z 11015G22KT 24/17 A3001 RMK A01 T02380166  RH  067%=      5-min Rain = 0.03
KTIS 110350Z 12018G23KT 24/17 A2999 RMK A01 T02370166  RH  068%=      5-min Rain = 0
KTIS 110355Z 14015G20KT 24/17 A2999 RMK A01 T02360165  RH  068%=      5-min Rain = 0
KTIS 110400Z 15014KT 24/17 A30 RMK A01 T02430167  RH  065%=      5-min Rain = 0
KTIS 110405Z 16012KT 24/17 A3001 RMK A01 T02420169  RH  067%=      5-min Rain = 0
KTIS 110410Z 15012KT 24/17 A3001 RMK A01 T02400166  RH  067%=      5-min Rain = 0
KTIS 110415Z 15011KT 24/17 A3002 RMK A01 T02400166  RH  067%=      5-min Rain = 0
KTIS 110420Z 14008KT 23/17 A3002 RMK A01 T02340172  RH  072%=      5-min Rain = 0
KTIS 110425Z 14004KT 23/17 A3003 RMK A01 T02300174  RH  074%=      5-min Rain = 0
KTIS 110430Z 09002KT 23/17 A3005 RMK A01 T02290174  RH  075%=      5-min Rain = 0
KTIS 110435Z 15002KT 23/17 A3004 RMK A01 T02290173  RH  074%=      5-min Rain = 0
KTIS 110440Z 14004KT 23/17 A3003 RMK A01 T02310172  RH  073%=      5-min Rain = 0
KTIS 110445Z 15006KT 23/17 A3003 RMK A01 T02290173  RH  074%=      5-min Rain = 0
KTIS 110450Z 08006G11KT 23/17 A3004 RMK A01 T02290173  RH  075%=      5-min Rain = 0
KTIS 110455Z 07010KT 23/17 A3004 RMK A01 T02290170  RH  073%=      5-min Rain = 0

Page generated in 0.0343 seconds.